Карточка аэропорта USHH

Внимание!
Информация на этой странице в стадии наполнения.
Если вы не увидели какой-то информации, или заметили неточность - пожалуйста сообщите нам!
Спасибо!
Команда RU-STAFF
Название аэропортаХанты-Мансийск
Название аэропорта (англ.)Khanty-Mansiysk
Превышение141 ft. (43 m.)
Координаты61°1.7039999999999', 69°5.1599999999999'
Высота перехода3000ft
Эшелон переходаQNH>=1013hPa:FL040; QNH>=977hPa:FL050; QNH<=977hPa:FL060
Коды ответчика5150-5177
Зона ОрВДТюмень РПИ (USTV)
Данные METARUSHH 280600Z 27004MPS 1200 1100NE R24/1100U SN BKN012 M04/M05 Q1021 R24/490339 TEMPO 1000 SN
Проноз погоды (TAF)USHH 280446Z 2806/2906 27003G10MPS 6000 FEW005 BKN016 TEMPO 2806/2812 24003G13MPS 0800 +SHSN +FZRA SCT003 BKN016CB TEMPO 2812/2818 5000 -SHSN BKN016CB TEMPO 2818/2903 2100 -SHSN BR SCT002 BKN010CB
NOTAMshow/hide NOTAM
AWOS   TABLE

Информация о ВПП

ВПП Длина ВПП (м.) Покрытие Курс ВПП Частота ILS
242800Асфальтобетон238110.1
062800Асфальтобетон58111.9

Диспетчерские позиции

Позывной Наименование органа УВД Частота
USHH_R_APPХантым-Круг120.4
USHH_TWRХантым-Вышка118.1



Спутниковое изображение